sensor_id;sensor_type;location;lat;lon;timestamp;P1;durP1;ratioP1;P2;durP2;ratioP2
5295;SDS011;2670;42.720;23.336;2023-07-20T00:01:32;12.77;;;2.50;;
5295;SDS011;2670;42.720;23.336;2023-07-20T00:03:59;4.70;;;1.83;;
5295;SDS011;2670;42.720;23.336;2023-07-20T00:06:27;6.53;;;2.53;;
5295;SDS011;2670;42.720;23.336;2023-07-20T00:08:54;5.40;;;2.80;;
5295;SDS011;2670;42.720;23.336;2023-07-20T00:11:21;5.83;;;2.40;;
5295;SDS011;2670;42.720;23.336;2023-07-20T00:13:48;9.97;;;1.90;;
5295;SDS011;2670;42.720;23.336;2023-07-20T00:16:14;13.70;;;3.00;;
5295;SDS011;2670;42.720;23.336;2023-07-20T00:18:41;8.37;;;3.07;;
5295;SDS011;2670;42.720;23.336;2023-07-20T00:21:08;7.43;;;3.20;;
5295;SDS011;2670;42.720;23.336;2023-07-20T00:23:37;7.40;;;2.63;;
5295;SDS011;2670;42.720;23.336;2023-07-20T00:26:04;6.83;;;2.77;;
5295;SDS011;2670;42.720;23.336;2023-07-20T00:28:31;4.43;;;2.40;;
5295;SDS011;2670;42.720;23.336;2023-07-20T00:30:58;11.03;;;2.90;;
5295;SDS011;2670;42.720;23.336;2023-07-20T00:33:25;9.47;;;2.63;;
5295;SDS011;2670;42.720;23.336;2023-07-20T00:35:52;5.87;;;2.40;;
5295;SDS011;2670;42.720;23.336;2023-07-20T00:38:19;8.73;;;2.60;;
5295;SDS011;2670;42.720;23.336;2023-07-20T00:40:48;10.70;;;3.00;;
5295;SDS011;2670;42.720;23.336;2023-07-20T00:43:14;6.97;;;2.67;;
5295;SDS011;2670;42.720;23.336;2023-07-20T00:45:41;7.33;;;2.77;;
5295;SDS011;2670;42.720;23.336;2023-07-20T00:48:09;11.10;;;2.53;;
5295;SDS011;2670;42.720;23.336;2023-07-20T00:50:37;7.63;;;2.20;;
5295;SDS011;2670;42.720;23.336;2023-07-20T00:53:05;6.07;;;2.60;;
5295;SDS011;2670;42.720;23.336;2023-07-20T00:55:33;4.40;;;2.30;;
5295;SDS011;2670;42.720;23.336;2023-07-20T00:58:01;16.90;;;2.40;;
5295;SDS011;2670;42.720;23.336;2023-07-20T01:00:28;8.87;;;2.70;;
5295;SDS011;2670;42.720;23.336;2023-07-20T01:02:55;14.43;;;2.67;;
5295;SDS011;2670;42.720;23.336;2023-07-20T01:05:23;7.67;;;2.80;;
5295;SDS011;2670;42.720;23.336;2023-07-20T01:07:59;6.17;;;2.70;;
5295;SDS011;2670;42.720;23.336;2023-07-20T01:10:36;6.13;;;2.43;;
5295;SDS011;2670;42.720;23.336;2023-07-20T01:13:08;6.87;;;2.30;;
5295;SDS011;2670;42.720;23.336;2023-07-20T01:15:36;13.17;;;3.17;;
5295;SDS011;2670;42.720;23.336;2023-07-20T01:18:03;6.90;;;2.70;;
5295;SDS011;2670;42.720;23.336;2023-07-20T01:20:30;15.37;;;3.33;;
5295;SDS011;2670;42.720;23.336;2023-07-20T01:23:15;5.83;;;2.70;;
5295;SDS011;2670;42.720;23.336;2023-07-20T01:26:19;6.17;;;2.53;;
5295;SDS011;2670;42.720;23.336;2023-07-20T01:29:04;9.67;;;2.87;;
5295;SDS011;2670;42.720;23.336;2023-07-20T01:31:50;5.67;;;2.63;;
5295;SDS011;2670;42.720;23.336;2023-07-20T01:34:19;5.63;;;2.90;;
5295;SDS011;2670;42.720;23.336;2023-07-20T01:36:48;12.90;;;2.93;;
5295;SDS011;2670;42.720;23.336;2023-07-20T01:39:17;6.63;;;3.00;;
5295;SDS011;2670;42.720;23.336;2023-07-20T01:41:44;9.37;;;2.40;;
5295;SDS011;2670;42.720;23.336;2023-07-20T01:44:12;9.43;;;2.20;;
5295;SDS011;2670;42.720;23.336;2023-07-20T01:46:39;7.63;;;2.40;;
5295;SDS011;2670;42.720;23.336;2023-07-20T01:49:07;5.23;;;2.07;;
5295;SDS011;2670;42.720;23.336;2023-07-20T01:51:33;8.00;;;2.50;;
5295;SDS011;2670;42.720;23.336;2023-07-20T01:54:00;7.57;;;2.30;;
5295;SDS011;2670;42.720;23.336;2023-07-20T01:56:27;12.13;;;2.43;;
5295;SDS011;2670;42.720;23.336;2023-07-20T01:58:54;7.73;;;2.50;;
5295;SDS011;2670;42.720;23.336;2023-07-20T02:01:20;10.80;;;2.63;;
5295;SDS011;2670;42.720;23.336;2023-07-20T02:03:47;8.70;;;2.27;;
5295;SDS011;2670;42.720;23.336;2023-07-20T02:06:15;12.80;;;3.50;;
5295;SDS011;2670;42.720;23.336;2023-07-20T02:08:42;7.10;;;2.67;;
5295;SDS011;2670;42.720;23.336;2023-07-20T02:11:09;8.70;;;2.47;;
5295;SDS011;2670;42.720;23.336;2023-07-20T02:13:36;10.27;;;3.37;;
5295;SDS011;2670;42.720;23.336;2023-07-20T02:16:03;5.50;;;2.30;;
5295;SDS011;2670;42.720;23.336;2023-07-20T02:18:30;6.90;;;3.37;;
5295;SDS011;2670;42.720;23.336;2023-07-20T02:20:57;8.30;;;2.80;;
5295;SDS011;2670;42.720;23.336;2023-07-20T02:23:25;4.40;;;2.10;;
5295;SDS011;2670;42.720;23.336;2023-07-20T02:25:52;6.50;;;2.80;;
5295;SDS011;2670;42.720;23.336;2023-07-20T02:28:18;8.23;;;2.60;;
5295;SDS011;2670;42.720;23.336;2023-07-20T02:30:45;11.10;;;2.43;;
5295;SDS011;2670;42.720;23.336;2023-07-20T02:33:12;15.83;;;2.53;;
5295;SDS011;2670;42.720;23.336;2023-07-20T02:35:40;9.67;;;3.43;;
5295;SDS011;2670;42.720;23.336;2023-07-20T02:38:06;18.23;;;3.10;;
5295;SDS011;2670;42.720;23.336;2023-07-20T02:40:34;8.73;;;2.90;;
5295;SDS011;2670;42.720;23.336;2023-07-20T02:43:01;12.83;;;3.43;;
5295;SDS011;2670;42.720;23.336;2023-07-20T02:45:28;11.93;;;2.67;;
5295;SDS011;2670;42.720;23.336;2023-07-20T02:47:55;17.73;;;3.90;;
5295;SDS011;2670;42.720;23.336;2023-07-20T02:50:22;10.70;;;3.20;;
5295;SDS011;2670;42.720;23.336;2023-07-20T02:52:49;12.20;;;3.13;;
5295;SDS011;2670;42.720;23.336;2023-07-20T02:55:15;14.23;;;3.60;;
5295;SDS011;2670;42.720;23.336;2023-07-20T02:57:44;9.30;;;3.23;;
5295;SDS011;2670;42.720;23.336;2023-07-20T03:00:11;8.67;;;2.70;;
5295;SDS011;2670;42.720;23.336;2023-07-20T03:02:40;5.50;;;2.73;;
5295;SDS011;2670;42.720;23.336;2023-07-20T03:05:07;8.70;;;3.00;;
5295;SDS011;2670;42.720;23.336;2023-07-20T03:07:35;12.97;;;3.27;;
5295;SDS011;2670;42.720;23.336;2023-07-20T03:10:02;13.23;;;3.27;;
5295;SDS011;2670;42.720;23.336;2023-07-20T03:12:29;7.43;;;2.80;;
5295;SDS011;2670;42.720;23.336;2023-07-20T03:14:57;7.60;;;3.17;;
5295;SDS011;2670;42.720;23.336;2023-07-20T03:17:24;11.87;;;3.20;;
5295;SDS011;2670;42.720;23.336;2023-07-20T03:19:51;10.37;;;2.83;;
5295;SDS011;2670;42.720;23.336;2023-07-20T03:22:17;10.50;;;3.43;;
5295;SDS011;2670;42.720;23.336;2023-07-20T03:24:44;10.87;;;3.00;;
5295;SDS011;2670;42.720;23.336;2023-07-20T03:27:11;18.93;;;3.63;;
5295;SDS011;2670;42.720;23.336;2023-07-20T03:29:38;11.00;;;3.47;;
5295;SDS011;2670;42.720;23.336;2023-07-20T03:32:06;13.40;;;3.63;;
5295;SDS011;2670;42.720;23.336;2023-07-20T03:34:33;10.30;;;3.23;;
5295;SDS011;2670;42.720;23.336;2023-07-20T03:37:00;10.93;;;3.37;;
5295;SDS011;2670;42.720;23.336;2023-07-20T03:39:29;10.80;;;3.33;;
5295;SDS011;2670;42.720;23.336;2023-07-20T03:41:57;8.90;;;3.73;;
5295;SDS011;2670;42.720;23.336;2023-07-20T03:44:24;16.10;;;3.63;;
5295;SDS011;2670;42.720;23.336;2023-07-20T03:46:50;13.13;;;4.30;;
5295;SDS011;2670;42.720;23.336;2023-07-20T03:49:18;6.80;;;3.60;;
5295;SDS011;2670;42.720;23.336;2023-07-20T03:51:45;10.60;;;3.80;;
5295;SDS011;2670;42.720;23.336;2023-07-20T03:54:12;9.03;;;3.50;;
5295;SDS011;2670;42.720;23.336;2023-07-20T03:56:38;17.67;;;4.40;;
5295;SDS011;2670;42.720;23.336;2023-07-20T03:59:05;9.10;;;4.03;;
5295;SDS011;2670;42.720;23.336;2023-07-20T04:01:32;16.43;;;4.53;;
5295;SDS011;2670;42.720;23.336;2023-07-20T04:04:01;8.97;;;3.80;;
5295;SDS011;2670;42.720;23.336;2023-07-20T04:06:32;15.37;;;4.73;;
5295;SDS011;2670;42.720;23.336;2023-07-20T04:08:59;21.87;;;4.97;;
5295;SDS011;2670;42.720;23.336;2023-07-20T04:11:26;13.50;;;3.20;;
5295;SDS011;2670;42.720;23.336;2023-07-20T04:13:53;10.00;;;3.43;;
5295;SDS011;2670;42.720;23.336;2023-07-20T04:16:21;13.23;;;4.10;;
5295;SDS011;2670;42.720;23.336;2023-07-20T04:18:48;7.50;;;3.50;;
5295;SDS011;2670;42.720;23.336;2023-07-20T04:21:14;29.33;;;3.77;;
5295;SDS011;2670;42.720;23.336;2023-07-20T04:23:42;11.90;;;3.53;;
5295;SDS011;2670;42.720;23.336;2023-07-20T04:26:10;13.30;;;3.90;;
5295;SDS011;2670;42.720;23.336;2023-07-20T04:28:37;12.50;;;4.40;;
5295;SDS011;2670;42.720;23.336;2023-07-20T04:31:11;13.10;;;3.60;;
5295;SDS011;2670;42.720;23.336;2023-07-20T04:33:38;6.10;;;4.10;;
5295;SDS011;2670;42.720;23.336;2023-07-20T04:36:06;14.27;;;4.37;;
5295;SDS011;2670;42.720;23.336;2023-07-20T04:38:33;11.77;;;4.40;;
5295;SDS011;2670;42.720;23.336;2023-07-20T04:41:00;13.40;;;4.90;;
5295;SDS011;2670;42.720;23.336;2023-07-20T04:43:28;11.77;;;5.30;;
5295;SDS011;2670;42.720;23.336;2023-07-20T04:45:56;9.43;;;3.90;;
5295;SDS011;2670;42.720;23.336;2023-07-20T04:48:23;20.00;;;5.20;;
5295;SDS011;2670;42.720;23.336;2023-07-20T04:50:50;10.63;;;4.67;;
5295;SDS011;2670;42.720;23.336;2023-07-20T04:53:16;11.73;;;4.83;;
5295;SDS011;2670;42.720;23.336;2023-07-20T04:55:47;11.30;;;4.73;;
5295;SDS011;2670;42.720;23.336;2023-07-20T04:58:16;17.73;;;5.27;;
5295;SDS011;2670;42.720;23.336;2023-07-20T05:00:43;11.03;;;4.83;;
5295;SDS011;2670;42.720;23.336;2023-07-20T05:03:10;13.20;;;3.90;;
5295;SDS011;2670;42.720;23.336;2023-07-20T05:05:37;11.30;;;4.03;;
5295;SDS011;2670;42.720;23.336;2023-07-20T05:08:04;13.23;;;4.03;;
5295;SDS011;2670;42.720;23.336;2023-07-20T05:10:31;9.90;;;3.90;;
5295;SDS011;2670;42.720;23.336;2023-07-20T05:12:58;10.43;;;3.70;;
5295;SDS011;2670;42.720;23.336;2023-07-20T05:15:26;9.23;;;3.70;;
5295;SDS011;2670;42.720;23.336;2023-07-20T05:17:53;8.53;;;3.67;;
5295;SDS011;2670;42.720;23.336;2023-07-20T05:20:20;10.40;;;3.90;;
5295;SDS011;2670;42.720;23.336;2023-07-20T05:22:46;8.23;;;3.70;;
5295;SDS011;2670;42.720;23.336;2023-07-20T05:25:13;11.83;;;4.00;;
5295;SDS011;2670;42.720;23.336;2023-07-20T05:27:43;10.97;;;4.80;;
5295;SDS011;2670;42.720;23.336;2023-07-20T05:30:10;13.80;;;4.07;;
5295;SDS011;2670;42.720;23.336;2023-07-20T05:32:38;9.40;;;4.90;;
5295;SDS011;2670;42.720;23.336;2023-07-20T05:35:06;9.27;;;4.37;;
5295;SDS011;2670;42.720;23.336;2023-07-20T05:37:33;13.83;;;4.20;;
5295;SDS011;2670;42.720;23.336;2023-07-20T05:40:00;16.13;;;4.43;;
5295;SDS011;2670;42.720;23.336;2023-07-20T05:42:27;12.33;;;5.60;;
5295;SDS011;2670;42.720;23.336;2023-07-20T05:44:53;9.33;;;4.97;;
5295;SDS011;2670;42.720;23.336;2023-07-20T05:47:20;13.20;;;7.20;;
5295;SDS011;2670;42.720;23.336;2023-07-20T05:49:48;11.27;;;5.97;;
5295;SDS011;2670;42.720;23.336;2023-07-20T05:52:15;17.43;;;7.50;;
5295;SDS011;2670;42.720;23.336;2023-07-20T05:54:42;12.23;;;6.20;;
5295;SDS011;2670;42.720;23.336;2023-07-20T05:57:08;15.73;;;6.27;;
5295;SDS011;2670;42.720;23.336;2023-07-20T05:59:35;21.73;;;6.33;;
5295;SDS011;2670;42.720;23.336;2023-07-20T06:02:03;14.13;;;6.20;;
5295;SDS011;2670;42.720;23.336;2023-07-20T06:04:30;14.20;;;6.20;;
5295;SDS011;2670;42.720;23.336;2023-07-20T06:06:58;10.13;;;6.73;;
5295;SDS011;2670;42.720;23.336;2023-07-20T06:09:25;19.23;;;6.30;;
5295;SDS011;2670;42.720;23.336;2023-07-20T06:11:52;10.33;;;5.70;;
5295;SDS011;2670;42.720;23.336;2023-07-20T06:14:20;14.47;;;6.60;;
5295;SDS011;2670;42.720;23.336;2023-07-20T06:16:47;11.53;;;6.00;;
5295;SDS011;2670;42.720;23.336;2023-07-20T06:19:14;19.23;;;6.27;;
5295;SDS011;2670;42.720;23.336;2023-07-20T06:21:41;14.77;;;6.50;;
5295;SDS011;2670;42.720;23.336;2023-07-20T06:24:09;12.27;;;5.23;;
5295;SDS011;2670;42.720;23.336;2023-07-20T06:26:36;17.20;;;6.97;;
5295;SDS011;2670;42.720;23.336;2023-07-20T06:29:04;14.23;;;6.17;;
5295;SDS011;2670;42.720;23.336;2023-07-20T06:31:31;9.97;;;5.37;;
5295;SDS011;2670;42.720;23.336;2023-07-20T06:33:58;13.13;;;6.37;;
5295;SDS011;2670;42.720;23.336;2023-07-20T06:36:24;17.33;;;6.00;;
5295;SDS011;2670;42.720;23.336;2023-07-20T06:38:52;16.60;;;5.67;;
5295;SDS011;2670;42.720;23.336;2023-07-20T06:41:20;14.67;;;8.00;;
5295;SDS011;2670;42.720;23.336;2023-07-20T06:43:47;12.20;;;5.60;;
5295;SDS011;2670;42.720;23.336;2023-07-20T06:46:14;20.93;;;7.33;;
5295;SDS011;2670;42.720;23.336;2023-07-20T06:48:40;15.00;;;5.50;;
5295;SDS011;2670;42.720;23.336;2023-07-20T06:51:07;9.57;;;5.70;;
5295;SDS011;2670;42.720;23.336;2023-07-20T06:53:34;14.30;;;6.87;;
5295;SDS011;2670;42.720;23.336;2023-07-20T06:56:01;21.00;;;6.00;;
5295;SDS011;2670;42.720;23.336;2023-07-20T06:58:29;16.07;;;4.70;;
5295;SDS011;2670;42.720;23.336;2023-07-20T07:00:55;12.20;;;5.33;;
5295;SDS011;2670;42.720;23.336;2023-07-20T07:03:22;12.33;;;4.83;;
5295;SDS011;2670;42.720;23.336;2023-07-20T07:05:49;10.87;;;5.47;;
5295;SDS011;2670;42.720;23.336;2023-07-20T07:08:15;18.10;;;6.20;;
5295;SDS011;2670;42.720;23.336;2023-07-20T07:10:42;9.53;;;4.00;;
5295;SDS011;2670;42.720;23.336;2023-07-20T07:13:09;11.33;;;4.10;;
5295;SDS011;2670;42.720;23.336;2023-07-20T07:15:37;12.47;;;4.20;;
5295;SDS011;2670;42.720;23.336;2023-07-20T07:18:04;15.73;;;5.13;;
5295;SDS011;2670;42.720;23.336;2023-07-20T07:20:31;11.60;;;4.00;;
5295;SDS011;2670;42.720;23.336;2023-07-20T07:22:58;9.53;;;4.00;;
5295;SDS011;2670;42.720;23.336;2023-07-20T07:25:25;8.50;;;3.43;;
5295;SDS011;2670;42.720;23.336;2023-07-20T07:27:53;13.80;;;4.53;;
5295;SDS011;2670;42.720;23.336;2023-07-20T07:30:21;13.17;;;4.00;;
5295;SDS011;2670;42.720;23.336;2023-07-20T07:32:49;14.70;;;4.20;;
5295;SDS011;2670;42.720;23.336;2023-07-20T07:35:16;8.63;;;4.27;;
5295;SDS011;2670;42.720;23.336;2023-07-20T07:37:42;8.40;;;4.53;;
5295;SDS011;2670;42.720;23.336;2023-07-20T07:40:11;13.33;;;4.73;;
5295;SDS011;2670;42.720;23.336;2023-07-20T07:42:38;17.10;;;4.50;;
5295;SDS011;2670;42.720;23.336;2023-07-20T07:45:05;18.90;;;4.70;;
5295;SDS011;2670;42.720;23.336;2023-07-20T07:47:33;10.27;;;5.10;;
5295;SDS011;2670;42.720;23.336;2023-07-20T07:50:01;11.63;;;4.43;;
5295;SDS011;2670;42.720;23.336;2023-07-20T07:52:28;16.33;;;4.97;;
5295;SDS011;2670;42.720;23.336;2023-07-20T07:54:55;12.60;;;4.57;;
5295;SDS011;2670;42.720;23.336;2023-07-20T07:57:21;8.27;;;4.50;;
5295;SDS011;2670;42.720;23.336;2023-07-20T07:59:48;8.13;;;3.80;;
5295;SDS011;2670;42.720;23.336;2023-07-20T08:02:15;10.53;;;3.60;;
5295;SDS011;2670;42.720;23.336;2023-07-20T08:04:42;12.00;;;4.30;;
5295;SDS011;2670;42.720;23.336;2023-07-20T08:07:10;13.97;;;4.03;;
5295;SDS011;2670;42.720;23.336;2023-07-20T08:09:36;9.83;;;3.50;;
5295;SDS011;2670;42.720;23.336;2023-07-20T08:12:03;13.43;;;4.37;;
5295;SDS011;2670;42.720;23.336;2023-07-20T08:14:30;9.03;;;4.27;;
5295;SDS011;2670;42.720;23.336;2023-07-20T08:16:57;11.60;;;4.63;;
5295;SDS011;2670;42.720;23.336;2023-07-20T08:19:24;12.80;;;4.03;;
5295;SDS011;2670;42.720;23.336;2023-07-20T08:21:51;9.30;;;3.13;;
5295;SDS011;2670;42.720;23.336;2023-07-20T08:24:19;14.20;;;3.33;;
5295;SDS011;2670;42.720;23.336;2023-07-20T08:26:45;10.23;;;2.90;;
5295;SDS011;2670;42.720;23.336;2023-07-20T08:29:12;6.20;;;2.50;;
5295;SDS011;2670;42.720;23.336;2023-07-20T08:31:39;11.33;;;4.13;;
5295;SDS011;2670;42.720;23.336;2023-07-20T08:34:05;7.90;;;3.40;;
5295;SDS011;2670;42.720;23.336;2023-07-20T08:36:32;13.57;;;3.03;;
5295;SDS011;2670;42.720;23.336;2023-07-20T08:38:59;14.40;;;2.70;;
5295;SDS011;2670;42.720;23.336;2023-07-20T08:41:29;16.30;;;3.97;;
5295;SDS011;2670;42.720;23.336;2023-07-20T08:43:56;5.33;;;3.13;;
5295;SDS011;2670;42.720;23.336;2023-07-20T08:46:24;11.63;;;3.70;;
5295;SDS011;2670;42.720;23.336;2023-07-20T08:48:53;5.77;;;2.50;;
5295;SDS011;2670;42.720;23.336;2023-07-20T08:51:22;15.07;;;4.00;;
5295;SDS011;2670;42.720;23.336;2023-07-20T08:53:51;11.30;;;3.00;;
5295;SDS011;2670;42.720;23.336;2023-07-20T08:56:18;8.37;;;2.97;;
5295;SDS011;2670;42.720;23.336;2023-07-20T08:58:48;6.23;;;2.83;;
5295;SDS011;2670;42.720;23.336;2023-07-20T09:01:14;13.80;;;3.10;;
5295;SDS011;2670;42.720;23.336;2023-07-20T09:03:43;7.23;;;3.07;;
5295;SDS011;2670;42.720;23.336;2023-07-20T09:06:14;7.03;;;3.00;;
5295;SDS011;2670;42.720;23.336;2023-07-20T09:08:41;8.27;;;2.80;;
5295;SDS011;2670;42.720;23.336;2023-07-20T09:11:10;9.03;;;2.93;;
5295;SDS011;2670;42.720;23.336;2023-07-20T09:13:38;8.70;;;3.17;;
5295;SDS011;2670;42.720;23.336;2023-07-20T09:16:06;17.40;;;3.60;;
5295;SDS011;2670;42.720;23.336;2023-07-20T09:18:33;13.53;;;3.27;;
5295;SDS011;2670;42.720;23.336;2023-07-20T09:21:01;8.67;;;2.90;;
5295;SDS011;2670;42.720;23.336;2023-07-20T09:23:32;8.50;;;2.70;;
5295;SDS011;2670;42.720;23.336;2023-07-20T09:25:59;10.20;;;3.20;;
5295;SDS011;2670;42.720;23.336;2023-07-20T09:28:27;4.80;;;2.17;;
5295;SDS011;2670;42.720;23.336;2023-07-20T09:30:54;14.17;;;2.90;;
5295;SDS011;2670;42.720;23.336;2023-07-20T09:33:23;16.43;;;3.13;;
5295;SDS011;2670;42.720;23.336;2023-07-20T09:35:50;6.73;;;2.70;;
5295;SDS011;2670;42.720;23.336;2023-07-20T09:38:17;10.50;;;3.20;;
5295;SDS011;2670;42.720;23.336;2023-07-20T09:40:44;7.50;;;2.87;;
5295;SDS011;2670;42.720;23.336;2023-07-20T09:43:11;9.53;;;2.40;;
5295;SDS011;2670;42.720;23.336;2023-07-20T09:45:39;13.73;;;3.33;;
5295;SDS011;2670;42.720;23.336;2023-07-20T09:48:07;15.70;;;2.80;;
5295;SDS011;2670;42.720;23.336;2023-07-20T09:50:39;8.37;;;3.37;;
5295;SDS011;2670;42.720;23.336;2023-07-20T09:53:09;11.20;;;3.10;;
5295;SDS011;2670;42.720;23.336;2023-07-20T09:55:39;7.97;;;2.93;;
5295;SDS011;2670;42.720;23.336;2023-07-20T09:58:08;9.00;;;2.53;;
5295;SDS011;2670;42.720;23.336;2023-07-20T10:00:35;8.50;;;2.73;;
5295;SDS011;2670;42.720;23.336;2023-07-20T10:03:03;15.43;;;2.60;;
5295;SDS011;2670;42.720;23.336;2023-07-20T10:05:31;10.70;;;3.03;;
5295;SDS011;2670;42.720;23.336;2023-07-20T10:08:01;6.07;;;2.67;;
5295;SDS011;2670;42.720;23.336;2023-07-20T10:10:31;12.93;;;2.73;;
5295;SDS011;2670;42.720;23.336;2023-07-20T10:13:00;5.77;;;2.90;;
5295;SDS011;2670;42.720;23.336;2023-07-20T10:15:29;4.67;;;2.43;;
5295;SDS011;2670;42.720;23.336;2023-07-20T10:18:02;11.60;;;3.00;;
5295;SDS011;2670;42.720;23.336;2023-07-20T10:20:35;11.37;;;4.03;;
5295;SDS011;2670;42.720;23.336;2023-07-20T10:23:04;5.60;;;3.00;;
5295;SDS011;2670;42.720;23.336;2023-07-20T10:25:31;6.53;;;3.07;;
5295;SDS011;2670;42.720;23.336;2023-07-20T10:28:02;7.47;;;3.40;;
5295;SDS011;2670;42.720;23.336;2023-07-20T10:30:30;10.13;;;3.80;;
5295;SDS011;2670;42.720;23.336;2023-07-20T10:32:58;7.77;;;3.90;;
5295;SDS011;2670;42.720;23.336;2023-07-20T10:35:28;6.40;;;2.30;;
5295;SDS011;2670;42.720;23.336;2023-07-20T10:37:55;6.60;;;3.10;;
5295;SDS011;2670;42.720;23.336;2023-07-20T10:40:30;13.20;;;2.50;;
5295;SDS011;2670;42.720;23.336;2023-07-20T10:42:59;5.90;;;2.20;;
5295;SDS011;2670;42.720;23.336;2023-07-20T10:45:35;7.70;;;2.70;;
5295;SDS011;2670;42.720;23.336;2023-07-20T10:48:15;7.60;;;2.73;;
5295;SDS011;2670;42.720;23.336;2023-07-20T10:50:44;9.07;;;3.27;;
5295;SDS011;2670;42.720;23.336;2023-07-20T10:53:12;10.07;;;2.93;;
5295;SDS011;2670;42.720;23.336;2023-07-20T10:55:41;8.63;;;2.77;;
5295;SDS011;2670;42.720;23.336;2023-07-20T10:58:10;7.23;;;2.60;;
5295;SDS011;2670;42.720;23.336;2023-07-20T11:00:37;8.43;;;2.90;;
5295;SDS011;2670;42.720;23.336;2023-07-20T11:03:26;11.03;;;3.27;;
5295;SDS011;2670;42.720;23.336;2023-07-20T11:05:54;11.07;;;2.97;;
5295;SDS011;2670;42.720;23.336;2023-07-20T11:08:37;5.43;;;2.47;;
5295;SDS011;2670;42.720;23.336;2023-07-20T11:11:23;7.67;;;2.63;;
5295;SDS011;2670;42.720;23.336;2023-07-20T11:13:55;5.77;;;2.30;;
5295;SDS011;2670;42.720;23.336;2023-07-20T11:19:14;8.57;;;2.57;;
5295;SDS011;2670;42.720;23.336;2023-07-20T11:21:43;13.50;;;3.10;;
5295;SDS011;2670;42.720;23.336;2023-07-20T11:24:10;4.23;;;2.50;;
5295;SDS011;2670;42.720;23.336;2023-07-20T11:26:46;17.13;;;3.73;;
5295;SDS011;2670;42.720;23.336;2023-07-20T11:29:14;5.93;;;2.50;;
5295;SDS011;2670;42.720;23.336;2023-07-20T11:31:42;5.50;;;2.60;;
5295;SDS011;2670;42.720;23.336;2023-07-20T11:34:11;5.53;;;3.30;;
5295;SDS011;2670;42.720;23.336;2023-07-20T11:36:39;8.70;;;3.07;;
5295;SDS011;2670;42.720;23.336;2023-07-20T11:39:08;6.73;;;2.87;;
5295;SDS011;2670;42.720;23.336;2023-07-20T11:41:35;4.70;;;2.47;;
5295;SDS011;2670;42.720;23.336;2023-07-20T11:44:04;11.20;;;3.10;;
5295;SDS011;2670;42.720;23.336;2023-07-20T11:46:32;5.17;;;2.97;;
5295;SDS011;2670;42.720;23.336;2023-07-20T11:48:59;11.97;;;3.20;;
5295;SDS011;2670;42.720;23.336;2023-07-20T11:51:26;6.83;;;3.40;;
5295;SDS011;2670;42.720;23.336;2023-07-20T11:53:54;9.10;;;3.40;;
5295;SDS011;2670;42.720;23.336;2023-07-20T11:56:22;7.27;;;3.33;;
5295;SDS011;2670;42.720;23.336;2023-07-20T11:58:49;6.17;;;2.97;;
5295;SDS011;2670;42.720;23.336;2023-07-20T12:01:18;5.40;;;2.97;;
5295;SDS011;2670;42.720;23.336;2023-07-20T12:03:45;12.07;;;3.87;;
5295;SDS011;2670;42.720;23.336;2023-07-20T12:06:14;12.30;;;3.53;;
5295;SDS011;2670;42.720;23.336;2023-07-20T12:08:41;11.60;;;3.10;;
5295;SDS011;2670;42.720;23.336;2023-07-20T12:11:08;5.70;;;2.97;;
5295;SDS011;2670;42.720;23.336;2023-07-20T12:13:35;11.17;;;2.90;;
5295;SDS011;2670;42.720;23.336;2023-07-20T12:16:08;6.77;;;2.77;;
5295;SDS011;2670;42.720;23.336;2023-07-20T12:18:37;7.80;;;2.70;;
5295;SDS011;2670;42.720;23.336;2023-07-20T12:21:05;10.80;;;3.33;;
5295;SDS011;2670;42.720;23.336;2023-07-20T12:23:36;8.30;;;3.20;;
5295;SDS011;2670;42.720;23.336;2023-07-20T12:26:05;11.20;;;3.30;;
5295;SDS011;2670;42.720;23.336;2023-07-20T12:28:35;6.63;;;2.77;;
5295;SDS011;2670;42.720;23.336;2023-07-20T12:31:04;6.30;;;3.00;;
5295;SDS011;2670;42.720;23.336;2023-07-20T12:33:31;9.30;;;2.93;;
5295;SDS011;2670;42.720;23.336;2023-07-20T12:35:59;11.73;;;2.83;;
5295;SDS011;2670;42.720;23.336;2023-07-20T12:38:26;5.73;;;2.90;;
5295;SDS011;2670;42.720;23.336;2023-07-20T12:40:53;5.73;;;3.30;;
5295;SDS011;2670;42.720;23.336;2023-07-20T12:43:21;10.53;;;2.67;;
5295;SDS011;2670;42.720;23.336;2023-07-20T12:45:48;6.50;;;2.17;;
5295;SDS011;2670;42.720;23.336;2023-07-20T12:48:15;7.70;;;2.43;;
5295;SDS011;2670;42.720;23.336;2023-07-20T12:50:41;10.50;;;2.93;;
5295;SDS011;2670;42.720;23.336;2023-07-20T12:53:11;12.53;;;3.10;;
5295;SDS011;2670;42.720;23.336;2023-07-20T12:55:38;9.90;;;3.17;;
5295;SDS011;2670;42.720;23.336;2023-07-20T12:58:05;15.53;;;2.80;;
5295;SDS011;2670;42.720;23.336;2023-07-20T13:00:31;6.83;;;2.40;;
5295;SDS011;2670;42.720;23.336;2023-07-20T13:02:58;6.60;;;2.73;;
5295;SDS011;2670;42.720;23.336;2023-07-20T13:05:25;8.57;;;2.70;;
5295;SDS011;2670;42.720;23.336;2023-07-20T13:07:52;10.43;;;2.67;;
5295;SDS011;2670;42.720;23.336;2023-07-20T13:10:20;4.83;;;2.87;;
5295;SDS011;2670;42.720;23.336;2023-07-20T13:12:46;9.87;;;2.40;;
5295;SDS011;2670;42.720;23.336;2023-07-20T13:15:13;5.77;;;2.73;;
5295;SDS011;2670;42.720;23.336;2023-07-20T13:17:40;14.60;;;3.63;;
5295;SDS011;2670;42.720;23.336;2023-07-20T13:20:07;7.20;;;2.20;;
5295;SDS011;2670;42.720;23.336;2023-07-20T13:22:35;16.10;;;3.37;;
5295;SDS011;2670;42.720;23.336;2023-07-20T13:25:03;13.50;;;3.03;;
5295;SDS011;2670;42.720;23.336;2023-07-20T13:27:31;8.73;;;2.93;;
5295;SDS011;2670;42.720;23.336;2023-07-20T13:29:58;5.23;;;2.43;;
5295;SDS011;2670;42.720;23.336;2023-07-20T13:32:26;4.70;;;2.53;;
5295;SDS011;2670;42.720;23.336;2023-07-20T13:34:53;9.73;;;3.20;;
5295;SDS011;2670;42.720;23.336;2023-07-20T13:37:20;10.03;;;2.70;;
5295;SDS011;2670;42.720;23.336;2023-07-20T13:39:46;11.40;;;3.20;;
5295;SDS011;2670;42.720;23.336;2023-07-20T13:42:13;8.00;;;2.80;;
5295;SDS011;2670;42.720;23.336;2023-07-20T13:44:41;10.87;;;3.10;;
5295;SDS011;2670;42.720;23.336;2023-07-20T13:47:08;16.60;;;2.73;;
5295;SDS011;2670;42.720;23.336;2023-07-20T13:49:35;12.23;;;3.33;;
5295;SDS011;2670;42.720;23.336;2023-07-20T13:52:01;6.80;;;2.67;;
5295;SDS011;2670;42.720;23.336;2023-07-20T13:54:28;8.00;;;2.57;;
5295;SDS011;2670;42.720;23.336;2023-07-20T13:56:55;8.57;;;2.80;;
5295;SDS011;2670;42.720;23.336;2023-07-20T13:59:22;8.10;;;2.60;;
5295;SDS011;2670;42.720;23.336;2023-07-20T14:01:51;12.90;;;2.40;;
5295;SDS011;2670;42.720;23.336;2023-07-20T14:04:18;8.50;;;2.70;;
5295;SDS011;2670;42.720;23.336;2023-07-20T14:06:45;5.63;;;2.90;;
5295;SDS011;2670;42.720;23.336;2023-07-20T14:09:12;10.90;;;2.23;;
5295;SDS011;2670;42.720;23.336;2023-07-20T14:11:39;11.47;;;2.13;;
5295;SDS011;2670;42.720;23.336;2023-07-20T14:14:06;5.13;;;2.50;;
5295;SDS011;2670;42.720;23.336;2023-07-20T14:16:32;8.70;;;2.80;;
5295;SDS011;2670;42.720;23.336;2023-07-20T14:19:00;7.33;;;2.43;;
5295;SDS011;2670;42.720;23.336;2023-07-20T14:21:29;7.53;;;2.53;;
5295;SDS011;2670;42.720;23.336;2023-07-20T14:23:56;6.10;;;2.90;;
5295;SDS011;2670;42.720;23.336;2023-07-20T14:26:23;4.90;;;2.50;;
5295;SDS011;2670;42.720;23.336;2023-07-20T14:28:50;13.40;;;2.70;;
5295;SDS011;2670;42.720;23.336;2023-07-20T14:31:17;9.20;;;2.80;;
5295;SDS011;2670;42.720;23.336;2023-07-20T14:33:44;4.90;;;2.33;;
5295;SDS011;2670;42.720;23.336;2023-07-20T14:36:13;6.40;;;3.03;;
5295;SDS011;2670;42.720;23.336;2023-07-20T14:38:39;4.50;;;2.00;;
5295;SDS011;2670;42.720;23.336;2023-07-20T14:41:06;13.07;;;2.60;;
5295;SDS011;2670;42.720;23.336;2023-07-20T14:43:33;6.00;;;2.87;;
5295;SDS011;2670;42.720;23.336;2023-07-20T14:46:00;8.30;;;2.70;;
5295;SDS011;2670;42.720;23.336;2023-07-20T14:48:27;8.83;;;3.00;;
5295;SDS011;2670;42.720;23.336;2023-07-20T14:50:53;17.17;;;3.60;;
5295;SDS011;2670;42.720;23.336;2023-07-20T14:53:22;5.77;;;3.10;;
5295;SDS011;2670;42.720;23.336;2023-07-20T14:55:48;3.53;;;2.27;;
5295;SDS011;2670;42.720;23.336;2023-07-20T14:58:15;8.20;;;2.90;;
5295;SDS011;2670;42.720;23.336;2023-07-20T15:00:42;6.17;;;2.30;;
5295;SDS011;2670;42.720;23.336;2023-07-20T15:03:08;3.40;;;1.83;;